sensor_id;sensor_type;location;lat;lon;timestamp;pressure;altitude;pressure_sealevel;temperature;humidity
21728;BME280;11026;50.560;17.852;2022-10-18T00:00:07;100559.34;;;15.45;59.94
21728;BME280;11026;50.560;17.852;2022-10-18T00:02:34;100554.47;;;15.36;60.86
21728;BME280;11026;50.560;17.852;2022-10-18T00:05:08;100565.84;;;15.21;61.17
21728;BME280;11026;50.560;17.852;2022-10-18T00:07:45;100568.84;;;14.94;61.83
21728;BME280;11026;50.560;17.852;2022-10-18T00:10:15;100567.88;;;14.95;62.11
21728;BME280;11026;50.560;17.852;2022-10-18T00:12:49;100569.91;;;15.28;61.49
21728;BME280;11026;50.560;17.852;2022-10-18T00:15:18;100562.94;;;15.07;61.63
21728;BME280;11026;50.560;17.852;2022-10-18T00:17:46;100560.06;;;15.11;61.92
21728;BME280;11026;50.560;17.852;2022-10-18T00:20:15;100558.19;;;14.94;62.60
21728;BME280;11026;50.560;17.852;2022-10-18T00:22:45;100557.22;;;14.95;62.73
21728;BME280;11026;50.560;17.852;2022-10-18T00:25:13;100564.06;;;14.82;63.12
21728;BME280;11026;50.560;17.852;2022-10-18T00:27:49;100565.66;;;14.86;63.09
21728;BME280;11026;50.560;17.852;2022-10-18T00:30:16;100565.69;;;14.66;63.86
21728;BME280;11026;50.560;17.852;2022-10-18T00:32:45;100562.06;;;14.46;64.58
21728;BME280;11026;50.560;17.852;2022-10-18T00:35:17;100565.66;;;14.45;64.49
21728;BME280;11026;50.560;17.852;2022-10-18T00:37:44;100567.00;;;14.56;64.82
21728;BME280;11026;50.560;17.852;2022-10-18T00:40:11;100555.94;;;14.65;64.51
21728;BME280;11026;50.560;17.852;2022-10-18T00:42:38;100560.47;;;14.42;64.97
21728;BME280;11026;50.560;17.852;2022-10-18T00:45:14;100561.34;;;14.63;64.06
21728;BME280;11026;50.560;17.852;2022-10-18T00:47:45;100558.28;;;14.72;63.83
21728;BME280;11026;50.560;17.852;2022-10-18T00:50:14;100562.53;;;14.76;63.56
21728;BME280;11026;50.560;17.852;2022-10-18T00:52:47;100562.34;;;14.81;63.57
21728;BME280;11026;50.560;17.852;2022-10-18T00:55:15;100545.41;;;14.82;63.95
21728;BME280;11026;50.560;17.852;2022-10-18T00:57:43;100538.41;;;14.80;64.22
21728;BME280;11026;50.560;17.852;2022-10-18T01:00:17;100527.84;;;14.78;64.09
21728;BME280;11026;50.560;17.852;2022-10-18T01:02:45;100530.22;;;14.84;63.52
21728;BME280;11026;50.560;17.852;2022-10-18T01:05:20;100521.16;;;14.88;63.33
21728;BME280;11026;50.560;17.852;2022-10-18T01:16:28;100486.03;;;14.99;62.70
21728;BME280;11026;50.560;17.852;2022-10-18T01:19:37;100483.06;;;14.86;63.89
21728;BME280;11026;50.560;17.852;2022-10-18T01:22:25;100489.69;;;14.96;62.75
21728;BME280;11026;50.560;17.852;2022-10-18T01:25:15;100501.66;;;15.07;62.17
21728;BME280;11026;50.560;17.852;2022-10-18T01:28:12;100505.63;;;14.98;62.15
21728;BME280;11026;50.560;17.852;2022-10-18T01:31:05;100501.41;;;14.92;61.97
21728;BME280;11026;50.560;17.852;2022-10-18T01:33:52;100514.41;;;14.81;62.22
21728;BME280;11026;50.560;17.852;2022-10-18T01:36:33;100507.84;;;14.69;63.19
21728;BME280;11026;50.560;17.852;2022-10-18T01:39:11;100506.16;;;14.67;63.19
21728;BME280;11026;50.560;17.852;2022-10-18T01:41:40;100509.06;;;14.81;63.49
21728;BME280;11026;50.560;17.852;2022-10-18T01:44:36;100511.22;;;14.73;64.56
21728;BME280;11026;50.560;17.852;2022-10-18T01:47:06;100501.25;;;14.37;65.49
21728;BME280;11026;50.560;17.852;2022-10-18T01:49:35;100502.47;;;14.30;66.44
21728;BME280;11026;50.560;17.852;2022-10-18T01:52:03;100494.84;;;14.21;66.80
21728;BME280;11026;50.560;17.852;2022-10-18T01:54:40;100479.63;;;13.84;69.71
21728;BME280;11026;50.560;17.852;2022-10-18T01:59:55;100484.69;;;13.47;73.08
21728;BME280;11026;50.560;17.852;2022-10-18T02:02:56;100481.59;;;13.58;71.49
21728;BME280;11026;50.560;17.852;2022-10-18T02:05:57;100471.50;;;13.66;70.60
21728;BME280;11026;50.560;17.852;2022-10-18T02:08:37;100472.50;;;13.84;69.90
21728;BME280;11026;50.560;17.852;2022-10-18T02:11:08;100468.38;;;13.77;69.89
21728;BME280;11026;50.560;17.852;2022-10-18T02:13:47;100474.09;;;13.88;68.37
21728;BME280;11026;50.560;17.852;2022-10-18T02:16:18;100466.31;;;13.84;68.06
21728;BME280;11026;50.560;17.852;2022-10-18T02:18:51;100469.19;;;13.99;67.84
21728;BME280;11026;50.560;17.852;2022-10-18T02:21:24;100472.78;;;13.98;67.79
21728;BME280;11026;50.560;17.852;2022-10-18T02:23:55;100466.44;;;13.81;68.61
21728;BME280;11026;50.560;17.852;2022-10-18T02:26:24;100469.09;;;13.60;68.97
21728;BME280;11026;50.560;17.852;2022-10-18T02:29:16;100461.44;;;13.52;69.45
21728;BME280;11026;50.560;17.852;2022-10-18T02:31:48;100462.16;;;13.34;69.83
21728;BME280;11026;50.560;17.852;2022-10-18T02:34:20;100458.97;;;13.26;70.21
21728;BME280;11026;50.560;17.852;2022-10-18T02:37:07;100457.81;;;13.53;69.19
21728;BME280;11026;50.560;17.852;2022-10-18T02:39:36;100454.41;;;13.72;68.76
21728;BME280;11026;50.560;17.852;2022-10-18T02:42:04;100462.00;;;13.81;68.32
21728;BME280;11026;50.560;17.852;2022-10-18T02:44:35;100465.06;;;13.72;69.00
21728;BME280;11026;50.560;17.852;2022-10-18T02:47:04;100462.03;;;13.59;69.04
21728;BME280;11026;50.560;17.852;2022-10-18T02:49:34;100464.59;;;13.40;69.49
21728;BME280;11026;50.560;17.852;2022-10-18T02:52:02;100464.03;;;13.32;69.61
21728;BME280;11026;50.560;17.852;2022-10-18T02:54:33;100462.34;;;13.29;69.70
21728;BME280;11026;50.560;17.852;2022-10-18T02:57:01;100471.44;;;13.24;70.10
21728;BME280;11026;50.560;17.852;2022-10-18T02:59:29;100474.09;;;13.46;69.20
21728;BME280;11026;50.560;17.852;2022-10-18T03:01:57;100466.13;;;13.46;68.97
21728;BME280;11026;50.560;17.852;2022-10-18T03:04:27;100472.50;;;13.42;69.13
21728;BME280;11026;50.560;17.852;2022-10-18T03:06:54;100473.19;;;13.25;69.87
21728;BME280;11026;50.560;17.852;2022-10-18T03:09:23;100479.50;;;13.21;70.35
21728;BME280;11026;50.560;17.852;2022-10-18T03:11:51;100474.03;;;13.25;70.32
21728;BME280;11026;50.560;17.852;2022-10-18T03:14:20;100477.75;;;13.43;70.40
21728;BME280;11026;50.560;17.852;2022-10-18T03:16:47;100473.25;;;13.23;72.11
21728;BME280;11026;50.560;17.852;2022-10-18T03:19:23;100467.09;;;12.99;72.94
21728;BME280;11026;50.560;17.852;2022-10-18T03:21:51;100475.69;;;12.83;73.32
21728;BME280;11026;50.560;17.852;2022-10-18T03:24:25;100474.78;;;12.35;74.90
21728;BME280;11026;50.560;17.852;2022-10-18T03:26:53;100476.28;;;12.19;75.85
21728;BME280;11026;50.560;17.852;2022-10-18T03:29:20;100473.28;;;12.03;76.64
21728;BME280;11026;50.560;17.852;2022-10-18T03:31:58;100484.16;;;11.95;77.65
21728;BME280;11026;50.560;17.852;2022-10-18T03:34:27;100481.09;;;11.81;78.19
21728;BME280;11026;50.560;17.852;2022-10-18T03:36:56;100479.56;;;11.74;80.12
21728;BME280;11026;50.560;17.852;2022-10-18T03:39:40;100475.56;;;11.62;80.17
21728;BME280;11026;50.560;17.852;2022-10-18T03:42:06;100478.28;;;11.59;80.10
21728;BME280;11026;50.560;17.852;2022-10-18T03:44:33;100479.13;;;11.61;80.13
21728;BME280;11026;50.560;17.852;2022-10-18T03:47:00;100478.66;;;11.48;80.21
21728;BME280;11026;50.560;17.852;2022-10-18T03:49:29;100477.53;;;11.55;80.17
21728;BME280;11026;50.560;17.852;2022-10-18T03:51:57;100469.91;;;11.73;79.21
21728;BME280;11026;50.560;17.852;2022-10-18T03:54:26;100477.59;;;11.80;78.68
21728;BME280;11026;50.560;17.852;2022-10-18T03:56:54;100489.28;;;12.01;78.40
21728;BME280;11026;50.560;17.852;2022-10-18T03:59:22;100488.44;;;11.99;78.23
21728;BME280;11026;50.560;17.852;2022-10-18T04:01:53;100486.81;;;11.95;79.44
21728;BME280;11026;50.560;17.852;2022-10-18T04:04:26;100491.59;;;11.57;80.76
21728;BME280;11026;50.560;17.852;2022-10-18T04:06:54;100488.84;;;11.06;82.46
21728;BME280;11026;50.560;17.852;2022-10-18T04:09:26;100495.53;;;11.18;83.00
21728;BME280;11026;50.560;17.852;2022-10-18T04:11:56;100495.53;;;10.88;83.89
21728;BME280;11026;50.560;17.852;2022-10-18T04:14:29;100492.72;;;10.94;84.49
21728;BME280;11026;50.560;17.852;2022-10-18T04:16:57;100492.09;;;10.86;84.68
21728;BME280;11026;50.560;17.852;2022-10-18T04:19:25;100492.16;;;10.53;86.50
21728;BME280;11026;50.560;17.852;2022-10-18T04:21:54;100501.09;;;10.49;87.17
21728;BME280;11026;50.560;17.852;2022-10-18T04:24:21;100492.16;;;10.83;86.42
21728;BME280;11026;50.560;17.852;2022-10-18T04:26:48;100501.47;;;10.67;86.80
21728;BME280;11026;50.560;17.852;2022-10-18T04:29:15;100498.09;;;10.62;87.07
21728;BME280;11026;50.560;17.852;2022-10-18T04:31:42;100494.47;;;10.66;87.10
21728;BME280;11026;50.560;17.852;2022-10-18T04:34:12;100499.63;;;10.69;86.81
21728;BME280;11026;50.560;17.852;2022-10-18T04:36:40;100497.22;;;10.61;86.49
21728;BME280;11026;50.560;17.852;2022-10-18T04:39:09;100501.63;;;10.61;86.02
21728;BME280;11026;50.560;17.852;2022-10-18T04:41:36;100497.97;;;10.66;85.83
21728;BME280;11026;50.560;17.852;2022-10-18T04:44:03;100498.47;;;10.79;85.39
21728;BME280;11026;50.560;17.852;2022-10-18T04:46:30;100485.69;;;10.93;86.25
21728;BME280;11026;50.560;17.852;2022-10-18T04:48:57;100488.88;;;10.75;86.59
21728;BME280;11026;50.560;17.852;2022-10-18T04:51:27;100487.56;;;10.90;86.83
21728;BME280;11026;50.560;17.852;2022-10-18T04:53:54;100491.53;;;10.75;87.04
21728;BME280;11026;50.560;17.852;2022-10-18T04:56:23;100482.13;;;10.65;88.07
21728;BME280;11026;50.560;17.852;2022-10-18T04:58:50;100493.41;;;10.40;89.51
21728;BME280;11026;50.560;17.852;2022-10-18T05:01:17;100484.47;;;10.44;89.53
21728;BME280;11026;50.560;17.852;2022-10-18T05:03:44;100483.19;;;10.59;89.25
21728;BME280;11026;50.560;17.852;2022-10-18T05:06:11;100490.16;;;10.62;89.59
21728;BME280;11026;50.560;17.852;2022-10-18T05:08:39;100487.75;;;10.52;89.59
21728;BME280;11026;50.560;17.852;2022-10-18T05:11:09;100481.97;;;10.40;90.22
21728;BME280;11026;50.560;17.852;2022-10-18T05:13:41;100482.25;;;10.29;90.26
21728;BME280;11026;50.560;17.852;2022-10-18T05:16:10;100493.47;;;10.37;89.77
21728;BME280;11026;50.560;17.852;2022-10-18T05:18:41;100483.81;;;10.36;89.75
21728;BME280;11026;50.560;17.852;2022-10-18T05:21:09;100486.06;;;10.17;90.39
21728;BME280;11026;50.560;17.852;2022-10-18T05:23:35;100486.38;;;10.06;91.81
21728;BME280;11026;50.560;17.852;2022-10-18T05:26:04;100482.44;;;10.21;92.01
21728;BME280;11026;50.560;17.852;2022-10-18T05:28:35;100483.81;;;10.38;92.41
21728;BME280;11026;50.560;17.852;2022-10-18T05:31:08;100483.63;;;10.09;91.77
21728;BME280;11026;50.560;17.852;2022-10-18T05:33:35;100488.16;;;10.06;92.39
21728;BME280;11026;50.560;17.852;2022-10-18T05:36:02;100480.88;;;10.14;91.35
21728;BME280;11026;50.560;17.852;2022-10-18T05:38:30;100482.34;;;10.26;90.50
21728;BME280;11026;50.560;17.852;2022-10-18T05:40:58;100481.56;;;10.21;90.33
21728;BME280;11026;50.560;17.852;2022-10-18T05:43:28;100491.25;;;10.22;90.98
21728;BME280;11026;50.560;17.852;2022-10-18T05:45:55;100483.00;;;10.34;91.41
21728;BME280;11026;50.560;17.852;2022-10-18T05:48:22;100486.66;;;10.30;91.63
21728;BME280;11026;50.560;17.852;2022-10-18T05:50:50;100489.94;;;10.38;90.89
21728;BME280;11026;50.560;17.852;2022-10-18T05:53:17;100492.97;;;10.55;89.41
21728;BME280;11026;50.560;17.852;2022-10-18T05:56:03;100490.28;;;10.57;88.28
21728;BME280;11026;50.560;17.852;2022-10-18T05:58:30;100494.41;;;10.67;88.37
21728;BME280;11026;50.560;17.852;2022-10-18T06:00:58;100498.00;;;10.65;88.24
21728;BME280;11026;50.560;17.852;2022-10-18T06:03:25;100491.41;;;10.48;88.80
21728;BME280;11026;50.560;17.852;2022-10-18T06:06:07;100501.09;;;10.49;89.01
21728;BME280;11026;50.560;17.852;2022-10-18T06:08:35;100498.19;;;10.58;89.22
21728;BME280;11026;50.560;17.852;2022-10-18T06:11:21;100501.41;;;10.70;88.97
21728;BME280;11026;50.560;17.852;2022-10-18T06:13:49;100495.13;;;10.72;88.15
21728;BME280;11026;50.560;17.852;2022-10-18T06:16:19;100496.53;;;10.86;87.51
21728;BME280;11026;50.560;17.852;2022-10-18T06:18:54;100493.91;;;10.84;88.04
21728;BME280;11026;50.560;17.852;2022-10-18T06:21:23;100496.00;;;11.02;87.29
21728;BME280;11026;50.560;17.852;2022-10-18T06:23:54;100502.31;;;10.98;87.36
21728;BME280;11026;50.560;17.852;2022-10-18T06:26:21;100497.00;;;10.98;86.94
21728;BME280;11026;50.560;17.852;2022-10-18T06:28:49;100501.31;;;11.02;87.32
21728;BME280;11026;50.560;17.852;2022-10-18T06:31:16;100504.50;;;11.12;87.07
21728;BME280;11026;50.560;17.852;2022-10-18T06:33:44;100497.16;;;11.22;87.11
21728;BME280;11026;50.560;17.852;2022-10-18T06:36:16;100492.69;;;11.24;87.44
21728;BME280;11026;50.560;17.852;2022-10-18T06:38:44;100492.28;;;11.36;86.49
21728;BME280;11026;50.560;17.852;2022-10-18T06:41:18;100502.59;;;11.45;86.03
21728;BME280;11026;50.560;17.852;2022-10-18T06:43:51;100511.56;;;11.41;86.09
21728;BME280;11026;50.560;17.852;2022-10-18T06:46:19;100508.72;;;11.47;86.82
21728;BME280;11026;50.560;17.852;2022-10-18T06:48:46;100507.16;;;11.40;87.19
21728;BME280;11026;50.560;17.852;2022-10-18T06:51:13;100505.81;;;11.55;87.40
21728;BME280;11026;50.560;17.852;2022-10-18T06:53:42;100508.44;;;11.83;86.57
21728;BME280;11026;50.560;17.852;2022-10-18T06:56:25;100508.75;;;12.00;86.81
21728;BME280;11026;50.560;17.852;2022-10-18T06:58:52;100503.28;;;12.05;87.22
21728;BME280;11026;50.560;17.852;2022-10-18T07:01:20;100504.75;;;12.14;87.47
21728;BME280;11026;50.560;17.852;2022-10-18T07:03:51;100507.38;;;12.40;87.23
21728;BME280;11026;50.560;17.852;2022-10-18T07:06:19;100516.84;;;12.71;86.55
21728;BME280;11026;50.560;17.852;2022-10-18T07:08:49;100506.41;;;12.90;85.00
21728;BME280;11026;50.560;17.852;2022-10-18T07:11:21;100501.81;;;13.17;83.37
21728;BME280;11026;50.560;17.852;2022-10-18T07:13:57;100503.72;;;13.37;80.63
21728;BME280;11026;50.560;17.852;2022-10-18T07:16:28;100507.56;;;13.51;80.05
21728;BME280;11026;50.560;17.852;2022-10-18T07:18:55;100507.34;;;13.78;79.79
21728;BME280;11026;50.560;17.852;2022-10-18T07:21:23;100503.78;;;13.99;79.02
21728;BME280;11026;50.560;17.852;2022-10-18T07:23:51;100508.44;;;14.15;76.35
21728;BME280;11026;50.560;17.852;2022-10-18T07:28:53;100505.34;;;14.65;75.04
21728;BME280;11026;50.560;17.852;2022-10-18T07:31:21;100506.25;;;14.84;73.83
21728;BME280;11026;50.560;17.852;2022-10-18T07:33:48;100504.75;;;14.97;74.60
21728;BME280;11026;50.560;17.852;2022-10-18T07:36:16;100497.28;;;15.06;72.09
21728;BME280;11026;50.560;17.852;2022-10-18T07:38:43;100490.91;;;15.27;71.18
21728;BME280;11026;50.560;17.852;2022-10-18T07:41:12;100494.31;;;15.48;69.98
21728;BME280;11026;50.560;17.852;2022-10-18T07:43:44;100494.44;;;15.64;69.54
21728;BME280;11026;50.560;17.852;2022-10-18T07:46:13;100486.34;;;15.84;68.58
21728;BME280;11026;50.560;17.852;2022-10-18T07:48:40;100491.06;;;15.96;69.50
21728;BME280;11026;50.560;17.852;2022-10-18T07:51:07;100487.88;;;16.23;67.14
21728;BME280;11026;50.560;17.852;2022-10-18T07:53:35;100489.44;;;16.44;67.74
21728;BME280;11026;50.560;17.852;2022-10-18T07:56:07;100495.53;;;16.64;65.88
21728;BME280;11026;50.560;17.852;2022-10-18T07:58:43;100492.22;;;16.76;65.24
21728;BME280;11026;50.560;17.852;2022-10-18T08:01:10;100494.47;;;16.84;64.65
21728;BME280;11026;50.560;17.852;2022-10-18T08:03:40;100494.50;;;17.00;64.65
21728;BME280;11026;50.560;17.852;2022-10-18T08:06:09;100495.38;;;17.16;63.83
21728;BME280;11026;50.560;17.852;2022-10-18T08:08:38;100489.75;;;17.20;64.29
21728;BME280;11026;50.560;17.852;2022-10-18T08:11:11;100473.38;;;17.42;63.84
21728;BME280;11026;50.560;17.852;2022-10-18T08:13:38;100484.63;;;17.63;64.07
21728;BME280;11026;50.560;17.852;2022-10-18T08:16:08;100487.75;;;17.56;61.55
21728;BME280;11026;50.560;17.852;2022-10-18T08:18:36;100489.28;;;17.60;62.39
21728;BME280;11026;50.560;17.852;2022-10-18T08:21:06;100484.09;;;17.73;63.02
21728;BME280;11026;50.560;17.852;2022-10-18T08:23:34;100482.72;;;17.65;61.61
21728;BME280;11026;50.560;17.852;2022-10-18T08:26:06;100472.69;;;17.69;61.94
21728;BME280;11026;50.560;17.852;2022-10-18T08:28:34;100472.38;;;17.75;60.79
21728;BME280;11026;50.560;17.852;2022-10-18T08:31:11;100480.44;;;17.89;61.47
21728;BME280;11026;50.560;17.852;2022-10-18T08:33:38;100474.38;;;18.02;62.48
21728;BME280;11026;50.560;17.852;2022-10-18T08:36:07;100471.78;;;18.00;60.84
21728;BME280;11026;50.560;17.852;2022-10-18T08:38:37;100476.31;;;18.14;61.57
21728;BME280;11026;50.560;17.852;2022-10-18T08:41:21;100458.34;;;18.30;61.07
21728;BME280;11026;50.560;17.852;2022-10-18T08:46:34;100457.63;;;18.71;60.72
21728;BME280;11026;50.560;17.852;2022-10-18T08:49:04;100461.78;;;19.04;58.69
21728;BME280;11026;50.560;17.852;2022-10-18T08:51:44;100458.53;;;19.40;56.83
21728;BME280;11026;50.560;17.852;2022-10-18T08:54:23;100460.69;;;20.78;54.31
21728;BME280;11026;50.560;17.852;2022-10-18T08:57:03;100460.28;;;22.40;50.56
21728;BME280;11026;50.560;17.852;2022-10-18T08:59:38;100455.03;;;24.13;46.80
21728;BME280;11026;50.560;17.852;2022-10-18T09:05:36;100461.31;;;26.04;42.63
21728;BME280;11026;50.560;17.852;2022-10-18T09:08:28;100459.44;;;26.81;41.56
21728;BME280;11026;50.560;17.852;2022-10-18T09:14:27;100459.03;;;27.03;41.01
21728;BME280;11026;50.560;17.852;2022-10-18T09:19:49;100460.47;;;25.55;41.78
21728;BME280;11026;50.560;17.852;2022-10-18T09:22:45;100470.16;;;25.67;42.77
21728;BME280;11026;50.560;17.852;2022-10-18T09:25:19;100450.63;;;25.04;43.78
21728;BME280;11026;50.560;17.852;2022-10-18T09:30:38;100449.13;;;26.84;40.52
21728;BME280;11026;50.560;17.852;2022-10-18T09:33:57;100445.34;;;27.68;39.32
21728;BME280;11026;50.560;17.852;2022-10-18T09:36:07;100446.56;;;27.38;39.58
21728;BME280;11026;50.560;17.852;2022-10-18T09:38:48;100442.19;;;26.15;41.06
21728;BME280;11026;50.560;17.852;2022-10-18T09:41:36;100439.09;;;25.91;41.84
21728;BME280;11026;50.560;17.852;2022-10-18T09:44:14;100436.69;;;26.54;40.90
21728;BME280;11026;50.560;17.852;2022-10-18T09:46:59;100425.22;;;27.25;39.77
21728;BME280;11026;50.560;17.852;2022-10-18T09:49:31;100425.06;;;27.44;39.93
21728;BME280;11026;50.560;17.852;2022-10-18T09:52:03;100423.50;;;26.96;39.89
21728;BME280;11026;50.560;17.852;2022-10-18T09:54:42;100404.13;;;27.09;40.30
21728;BME280;11026;50.560;17.852;2022-10-18T09:57:43;100407.88;;;26.81;41.03
21728;BME280;11026;50.560;17.852;2022-10-18T10:00:34;100402.94;;;26.66;41.22
21728;BME280;11026;50.560;17.852;2022-10-18T10:03:10;100395.09;;;27.18;40.75
21728;BME280;11026;50.560;17.852;2022-10-18T10:05:38;100387.97;;;28.23;39.46
21728;BME280;11026;50.560;17.852;2022-10-18T10:08:05;100389.94;;;28.99;37.50
21728;BME280;11026;50.560;17.852;2022-10-18T10:10:33;100379.41;;;29.12;37.07
21728;BME280;11026;50.560;17.852;2022-10-18T10:15:29;100382.19;;;28.18;38.86
21728;BME280;11026;50.560;17.852;2022-10-18T10:18:18;100378.69;;;29.02;37.13
21728;BME280;11026;50.560;17.852;2022-10-18T10:20:55;100364.31;;;29.43;36.78
21728;BME280;11026;50.560;17.852;2022-10-18T10:23:28;100356.47;;;29.48;36.33
21728;BME280;11026;50.560;17.852;2022-10-18T10:26:23;100343.38;;;30.87;34.95
21728;BME280;11026;50.560;17.852;2022-10-18T10:28:50;100334.06;;;31.73;33.80
21728;BME280;11026;50.560;17.852;2022-10-18T10:34:18;100325.47;;;31.39;33.16
21728;BME280;11026;50.560;17.852;2022-10-18T10:36:51;100327.16;;;29.91;35.17
21728;BME280;11026;50.560;17.852;2022-10-18T10:39:21;100312.28;;;30.88;35.18
21728;BME280;11026;50.560;17.852;2022-10-18T10:41:50;100309.88;;;31.62;33.78
21728;BME280;11026;50.560;17.852;2022-10-18T10:44:26;100298.53;;;31.27;33.29
21728;BME280;11026;50.560;17.852;2022-10-18T10:46:54;100299.28;;;31.44;33.72
21728;BME280;11026;50.560;17.852;2022-10-18T10:52:16;100309.59;;;32.24;32.56
21728;BME280;11026;50.560;17.852;2022-10-18T10:54:59;100311.97;;;32.42;32.55
21728;BME280;11026;50.560;17.852;2022-10-18T10:57:49;100306.63;;;33.28;31.94
21728;BME280;11026;50.560;17.852;2022-10-18T11:03:14;100295.25;;;32.07;33.51
21728;BME280;11026;50.560;17.852;2022-10-18T11:05:55;100293.47;;;32.00;33.87
21728;BME280;11026;50.560;17.852;2022-10-18T11:08:40;100279.16;;;30.12;36.06
21728;BME280;11026;50.560;17.852;2022-10-18T11:11:33;100276.97;;;30.08;35.44
21728;BME280;11026;50.560;17.852;2022-10-18T11:14:12;100258.72;;;31.10;34.30
21728;BME280;11026;50.560;17.852;2022-10-18T11:22:24;100256.34;;;32.27;32.56
21728;BME280;11026;50.560;17.852;2022-10-18T11:24:51;100251.00;;;32.70;32.39
21728;BME280;11026;50.560;17.852;2022-10-18T11:27:27;100244.59;;;32.63;32.80
21728;BME280;11026;50.560;17.852;2022-10-18T11:33:20;100236.19;;;31.98;32.57
21728;BME280;11026;50.560;17.852;2022-10-18T11:43:52;100220.75;;;31.68;32.84
21728;BME280;11026;50.560;17.852;2022-10-18T11:46:46;100223.44;;;31.76;33.35
21728;BME280;11026;50.560;17.852;2022-10-18T12:02:53;100207.13;;;27.33;39.54
21728;BME280;11026;50.560;17.852;2022-10-18T12:05:24;100197.13;;;27.15;40.63
21728;BME280;11026;50.560;17.852;2022-10-18T12:08:45;100190.72;;;26.98;39.92
21728;BME280;11026;50.560;17.852;2022-10-18T12:10:48;100187.50;;;27.03;40.77
21728;BME280;11026;50.560;17.852;2022-10-18T12:14:02;100185.88;;;27.28;40.04
21728;BME280;11026;50.560;17.852;2022-10-18T12:16:28;100177.97;;;26.00;42.90
21728;BME280;11026;50.560;17.852;2022-10-18T12:19:26;100174.53;;;24.94;44.98
21728;BME280;11026;50.560;17.852;2022-10-18T12:21:56;100171.19;;;24.63;45.90
21728;BME280;11026;50.560;17.852;2022-10-18T12:24:29;100169.16;;;24.46;46.43
21728;BME280;11026;50.560;17.852;2022-10-18T12:27:00;100162.09;;;24.14;46.00
21728;BME280;11026;50.560;17.852;2022-10-18T12:29:50;100158.28;;;24.26;45.82
21728;BME280;11026;50.560;17.852;2022-10-18T12:32:24;100159.44;;;24.34;45.94
21728;BME280;11026;50.560;17.852;2022-10-18T12:35:02;100156.59;;;24.25;47.78
21728;BME280;11026;50.560;17.852;2022-10-18T12:37:56;100154.53;;;23.89;47.62
21728;BME280;11026;50.560;17.852;2022-10-18T12:40:33;100158.28;;;24.26;47.64
21728;BME280;11026;50.560;17.852;2022-10-18T12:43:07;100153.50;;;24.40;45.97
21728;BME280;11026;50.560;17.852;2022-10-18T12:45:48;100151.78;;;24.58;45.77
21728;BME280;11026;50.560;17.852;2022-10-18T12:48:43;100150.03;;;25.06;44.59
21728;BME280;11026;50.560;17.852;2022-10-18T12:53:44;100140.97;;;24.87;45.35
21728;BME280;11026;50.560;17.852;2022-10-18T13:09:28;100119.09;;;27.17;41.52
21728;BME280;11026;50.560;17.852;2022-10-18T13:15:02;100122.78;;;26.72;42.19
21728;BME280;11026;50.560;17.852;2022-10-18T13:18:23;100119.81;;;25.94;43.26
21728;BME280;11026;50.560;17.852;2022-10-18T13:21:07;100124.13;;;25.22;44.53
21728;BME280;11026;50.560;17.852;2022-10-18T13:23:45;100125.00;;;24.74;45.76
21728;BME280;11026;50.560;17.852;2022-10-18T13:26:45;100118.44;;;24.09;47.60
21728;BME280;11026;50.560;17.852;2022-10-18T13:32:43;100119.72;;;23.65;48.85
21728;BME280;11026;50.560;17.852;2022-10-18T13:41:05;100101.00;;;23.33;51.79
21728;BME280;11026;50.560;17.852;2022-10-18T13:48:53;100078.78;;;22.98;53.18
21728;BME280;11026;50.560;17.852;2022-10-18T13:51:43;100087.22;;;23.05;52.22
21728;BME280;11026;50.560;17.852;2022-10-18T14:00:27;100082.75;;;22.94;52.96
21728;BME280;11026;50.560;17.852;2022-10-18T14:06:14;100066.72;;;22.93;55.03
21728;BME280;11026;50.560;17.852;2022-10-18T14:08:55;100070.88;;;22.65;55.17
21728;BME280;11026;50.560;17.852;2022-10-18T14:11:48;100063.00;;;22.52;55.96
21728;BME280;11026;50.560;17.852;2022-10-18T14:14:39;100058.66;;;22.40;55.88
21728;BME280;11026;50.560;17.852;2022-10-18T14:19:48;100053.31;;;22.28;56.41
21728;BME280;11026;50.560;17.852;2022-10-18T14:24:54;100061.69;;;22.46;57.71
21728;BME280;11026;50.560;17.852;2022-10-18T14:27:26;100056.88;;;22.50;58.98
21728;BME280;11026;50.560;17.852;2022-10-18T14:30:14;100049.97;;;22.36;58.81
21728;BME280;11026;50.560;17.852;2022-10-18T14:32:47;100054.16;;;22.29;59.42
21728;BME280;11026;50.560;17.852;2022-10-18T14:35:23;100056.28;;;22.46;59.75
21728;BME280;11026;50.560;17.852;2022-10-18T14:37:58;100049.09;;;22.36;59.93
21728;BME280;11026;50.560;17.852;2022-10-18T14:40:36;100056.94;;;22.18;59.19
21728;BME280;11026;50.560;17.852;2022-10-18T14:45:46;100051.00;;;22.13;60.82
21728;BME280;11026;50.560;17.852;2022-10-18T14:48:16;100046.88;;;22.08;62.16
21728;BME280;11026;50.560;17.852;2022-10-18T14:50:47;100044.13;;;21.88;63.44
21728;BME280;11026;50.560;17.852;2022-10-18T14:53:26;100049.44;;;21.78;62.61
21728;BME280;11026;50.560;17.852;2022-10-18T14:56:00;100042.81;;;21.82;61.75
21728;BME280;11026;50.560;17.852;2022-10-18T14:58:29;100042.00;;;21.70;62.57
21728;BME280;11026;50.560;17.852;2022-10-18T15:00:58;100042.94;;;21.80;62.73
21728;BME280;11026;50.560;17.852;2022-10-18T15:03:25;100040.31;;;21.47;63.50
21728;BME280;11026;50.560;17.852;2022-10-18T15:06:02;100039.09;;;21.40;64.59
21728;BME280;11026;50.560;17.852;2022-10-18T15:11:00;100024.91;;;21.04;64.75
21728;BME280;11026;50.560;17.852;2022-10-18T15:13:30;100028.41;;;20.71;66.88
21728;BME280;11026;50.560;17.852;2022-10-18T15:15:58;100023.41;;;20.66;68.61